Wolcott, Indiana
Current Conditions -  °F | °C
As of 8:35 AM on Monday 24 Nov 2014 (Local Time) from KMCX Reporting Station
Overcast Overcast  
Wind Chill: 54°   Ceiling: 1200
Heat Index: 54°   Visibility: 10mi
Dew Point: 52°   Wind: 22mph
Humidity: 94%   Direction: 210°SSW
Pressure: 29.1"   Gusts: 25mph
Location:  40.76°N, 87.04°W
Report Text: KMCX 241335Z AUTO 21019G22KT 10SM OVC012 12/11 A2910 RMK AO2 P0001 T01200110
Loading
Personal Weather Stations






























Interactive Weather Map New forecast layout! Learn more

10-Day Weather Forecast

Advertisements
Track Severe Weather on mobile